Time;durP1;ratioP1;P1;durP2;ratioP2;P2;SDS_P1;SDS_P2;PMS_P1;PMS_P2;Temp;Humidity;BMP_temperature;BMP_pressure;BME280_temperature;BME280_humidity;BME280_pressure;Samples;Min_cycle;Max_cycle;Signal;HPM_P1;HPM_P2
2023/03/27 00:00:00;;;;;;;7.97;0.50;;;;;;;-146.25;89.36;52441.19;2088174;28;35139;-73
2023/03/27 00:01:02;;;;;;;6.72;0.43;;;;;;;-146.25;89.60;52378.34;2087931;28;29835;-73
2023/03/27 00:02:03;;;;;;;10.32;0.60;;;;;;;-146.25;89.74;52382.38;2088863;28;20045;-73
2023/03/27 00:03:05;;;;;;;9.50;0.88;;;;;;;-146.25;89.79;52416.84;2088093;28;35197;-73
2023/03/27 00:04:07;;;;;;;8.38;0.65;;;;;;;-146.25;89.41;52427.00;2088208;28;38566;-73
2023/03/27 00:05:11;;;;;;;15.15;0.60;;;;;;;-146.25;90.05;52410.78;2087757;28;31153;-73
2023/03/27 00:06:16;;;;;;;9.02;0.60;;;;;;;-146.25;89.90;52396.59;2087944;28;33208;-72
2023/03/27 00:07:20;;;;;;;7.07;0.57;;;;;;;-146.25;90.25;52447.28;2078836;28;41775;-73
2023/03/27 00:08:23;;;;;;;9.88;0.93;;;;;;;-146.25;89.87;52364.13;2080647;28;20038;-73
2023/03/27 00:09:25;;;;;;;10.43;0.80;;;;;;;-146.25;89.41;52435.09;2088943;28;36339;-73
2023/03/27 00:10:30;;;;;;;11.40;0.68;;;;;;;-146.25;90.04;52420.91;2090199;28;34354;-73
2023/03/27 00:11:33;;;;;;;8.32;0.68;;;;;;;-146.25;90.14;52386.44;2089445;28;34223;-73
2023/03/27 00:12:34;;;;;;;6.63;0.35;;;;;;;-146.25;89.55;52445.25;2079646;28;36360;-73
2023/03/27 00:13:37;;;;;;;6.03;0.70;;;;;;;-146.25;89.64;52447.28;2080614;28;20038;-73
2023/03/27 00:14:44;;;;;;;11.13;0.70;;;;;;;-146.25;90.00;52390.50;2079046;28;36703;-74
2023/03/27 00:15:46;;;;;;;9.35;0.70;;;;;;;-146.25;90.11;52408.75;2079149;28;37530;-74
2023/03/27 00:16:48;;;;;;;10.52;0.68;;;;;;;-146.25;90.20;52420.91;2088379;28;34460;-73
2023/03/27 00:17:54;;;;;;;8.45;0.68;;;;;;;-146.25;90.41;52420.91;2087659;28;36725;-73
2023/03/27 00:18:55;;;;;;;9.65;1.02;;;;;;;-146.25;90.16;52396.59;2088983;28;20200;-73
2023/03/27 00:19:59;;;;;;;5.93;0.40;;;;;;;-146.25;90.34;52364.13;2078976;28;37490;-73
2023/03/27 00:21:02;;;;;;;9.05;0.70;;;;;;;-146.25;90.19;52429.03;2080023;28;31354;-73
2023/03/27 00:22:06;;;;;;;4.78;0.43;;;;;;;-146.25;90.06;52414.84;2078881;28;32091;-74
2023/03/27 00:23:08;;;;;;;9.35;0.75;;;;;;;-146.25;90.17;52382.38;2079603;28;39113;-73
2023/03/27 00:24:10;;;;;;;6.65;0.55;;;;;;;-146.25;90.51;52429.03;2088739;28;20123;-74
2023/03/27 00:25:12;;;;;;;8.60;0.45;;;;;;;-146.25;90.71;52390.50;2088002;28;36757;-73
2023/03/27 00:26:14;;;;;;;9.90;0.55;;;;;;;-146.25;90.52;52433.06;2088321;28;33228;-74
2023/03/27 00:27:16;;;;;;;9.85;0.60;;;;;;;-146.25;91.14;52404.69;2088372;28;33287;-72
2023/03/27 00:28:19;;;;;;;7.18;0.70;;;;;;;-146.25;91.05;52439.16;2087993;28;37127;-74
2023/03/27 00:29:21;;;;;;;5.55;0.57;;;;;;;-146.25;91.13;52453.34;2088920;28;20077;-74
2023/03/27 00:30:25;;;;;;;7.80;0.80;;;;;;;-146.25;91.33;52408.75;2087997;28;30350;-72
2023/03/27 00:31:27;;;;;;;7.63;0.50;;;;;;;-146.25;91.38;52429.03;2088102;28;33181;-73
2023/03/27 00:32:30;;;;;;;10.27;0.68;;;;;;;-146.25;91.75;52384.41;2088325;28;20038;-72
2023/03/27 00:33:32;;;;;;;8.48;0.88;;;;;;;-146.25;92.10;52376.31;2088503;28;20037;-74
2023/03/27 00:34:33;;;;;;;6.10;0.70;;;;;;;-146.25;92.03;52427.00;2087799;28;20120;-74
2023/03/27 00:35:35;;;;;;;7.63;0.52;;;;;;;-146.25;91.92;52398.59;2080398;28;20053;-73
2023/03/27 00:36:37;;;;;;;8.90;0.77;;;;;;;-146.25;91.72;52402.66;2070916;28;30183;-72
2023/03/27 00:37:40;;;;;;;12.32;0.70;;;;;;;-146.25;92.21;52396.59;2080170;28;20038;-72
2023/03/27 00:38:42;;;;;;;10.40;0.60;;;;;;;-146.25;92.41;52433.06;2088493;28;31745;-72
2023/03/27 00:39:48;;;;;;;6.43;0.60;;;;;;;-146.25;91.78;52437.13;2088599;28;20156;-72
2023/03/27 00:40:53;;;;;;;12.07;0.82;;;;;;;-146.25;92.51;52422.94;2079677;28;20810;-73
2023/03/27 00:41:55;;;;;;;7.95;0.77;;;;;;;-146.25;92.33;52402.66;2080318;28;20038;-73
2023/03/27 00:42:58;;;;;;;5.22;0.50;;;;;;;-146.25;92.51;52396.59;2088033;28;24352;-73
2023/03/27 00:43:59;;;;;;;5.72;0.65;;;;;;;-146.25;92.36;52394.56;2078864;28;35786;-73
2023/03/27 00:45:01;;;;;;;9.77;0.77;;;;;;;-146.25;92.94;52435.09;2071053;28;34405;-73
2023/03/27 00:46:43;;;;;;;8.32;0.57;;;;;;;-146.25;92.91;52455.38;2079068;28;27656;-73
2023/03/27 00:47:52;;;;;;;7.60;0.47;;;;;;;-146.25;92.99;52439.16;2087568;28;34152;-73
2023/03/27 00:48:56;;;;;;;7.28;0.55;;;;;;;-146.25;92.83;52437.13;2079130;28;23991;-72
2023/03/27 00:50:15;;;;;;;9.40;0.60;;;;;;;-146.25;92.97;52396.59;2081112;28;20154;-72
2023/03/27 00:51:21;;;;;;;11.10;0.63;;;;;;;-146.25;92.95;52398.59;2088017;28;35178;-73
2023/03/27 00:52:28;;;;;;;8.18;0.52;;;;;;;-146.25;93.05;52390.50;2079088;28;34209;-72
2023/03/27 00:53:30;;;;;;;7.65;0.60;;;;;;;-146.25;93.12;52400.63;2080473;28;23598;-72
2023/03/27 00:54:39;;;;;;;12.00;0.60;;;;;;;-146.25;93.05;52420.91;2087587;28;27961;-72
2023/03/27 00:55:45;;;;;;;8.02;0.55;;;;;;;-146.25;92.72;52412.81;2079352;28;31687;-72
2023/03/27 00:56:48;;;;;;;7.22;0.45;;;;;;;-146.25;92.01;52380.38;2081401;28;20132;-72
2023/03/27 00:57:56;;;;;;;8.02;0.60;;;;;;;-146.25;91.28;52469.56;2071238;28;20072;-72
2023/03/27 00:59:05;;;;;;;6.53;0.40;;;;;;;-146.25;91.44;52384.41;2064857;28;32550;-72
2023/03/27 01:00:12;;;;;;;4.85;0.30;;;;;;;-146.25;90.92;52422.94;2073528;28;27387;-72
2023/03/27 01:01:18;;;;;;;4.68;0.30;;;;;;;-146.25;90.90;52429.03;2080323;28;20912;-71
2023/03/27 01:02:21;;;;;;;2.90;0.20;;;;;;;-146.25;91.46;52374.28;2079379;28;20808;-72
2023/03/27 01:03:28;;;;;;;5.05;0.20;;;;;;;-146.25;91.26;52408.75;2063131;28;20087;-72
2023/03/27 01:04:34;;;;;;;5.63;0.28;;;;;;;-146.25;92.23;52402.66;2073842;28;20149;-72
2023/03/27 01:05:36;;;;;;;5.15;0.47;;;;;;;-146.25;92.36;52408.75;2079451;28;20049;-72
2023/03/27 01:06:40;;;;;;;6.88;0.30;;;;;;;-146.25;92.61;52400.63;2063315;28;20035;-72
2023/03/27 01:07:45;;;;;;;4.38;0.20;;;;;;;-146.25;92.52;52416.84;2056075;28;20169;-72
2023/03/27 01:09:00;;;;;;;5.72;0.20;;;;;;;-146.25;92.67;52400.63;2073906;28;20132;-72
2023/03/27 01:10:05;;;;;;;6.15;0.32;;;;;;;-146.25;92.22;52445.25;2079717;28;20042;-72
2023/03/27 01:11:34;;;;;;;4.68;0.40;;;;;;;-146.25;91.79;52410.78;2079570;28;20925;-72
2023/03/27 01:13:15;;;;;;;2.53;0.20;;;;;;;-146.25;91.74;52404.69;2084492;28;20831;-72
2023/03/27 01:14:35;;;;;;;1.85;0.22;;;;;;;-146.25;92.23;52435.09;2079433;28;20084;-72
2023/03/27 01:15:50;;;;;;;1.73;0.20;;;;;;;-146.25;92.04;52408.75;2065041;28;20047;-72
2023/03/27 01:17:46;;;;;;;3.58;0.30;;;;;;;-146.25;92.14;52427.00;2060138;28;20141;-72
2023/03/27 01:19:01;;;;;;;4.95;0.20;;;;;;;-146.25;93.07;52437.13;2089584;28;20921;-72
2023/03/27 01:20:31;;;;;;;2.55;0.10;;;;;;;-146.25;92.96;52402.66;2080574;28;20796;-72
2023/03/27 01:21:51;;;;;;;4.93;0.30;;;;;;;-146.25;93.16;52424.97;2076333;28;20042;-72
2023/03/27 01:23:52;;;;;;;4.57;0.20;;;;;;;-146.25;93.60;52453.34;2075292;28;20159;-71
2023/03/27 01:25:27;;;;;;;2.58;0.10;;;;;;;-146.25;93.73;52424.97;2048056;28;20852;-72
2023/03/27 01:27:03;;;;;;;2.20;0.20;;;;;;;-146.25;93.74;52429.03;2083013;28;25276;-72
2023/03/27 01:28:26;;;;;;;3.85;0.20;;;;;;;-146.25;94.18;52443.22;2080921;28;20190;-72
2023/03/27 01:30:11;;;;;;;3.65;0.15;;;;;;;-146.25;93.87;52418.88;2083991;28;20155;-72
2023/03/27 01:31:53;;;;;;;4.80;0.20;;;;;;;-146.25;94.51;52422.94;2056033;28;20055;-72
2023/03/27 01:33:41;;;;;;;5.10;0.20;;;;;;;-146.25;94.83;52441.19;2061080;28;20043;-71
2023/03/27 01:35:35;;;;;;;1.15;0.20;;;;;;;-146.25;94.50;52420.91;2080244;28;20081;-72
2023/03/27 01:37:14;;;;;;;2.47;0.10;;;;;;;-146.25;94.16;52402.66;2079372;28;20038;-72
2023/03/27 01:39:06;;;;;;;6.75;0.30;;;;;;;-146.25;93.94;52382.38;2086732;28;20418;-72
2023/03/27 01:40:20;;;;;;;3.90;0.20;;;;;;;-146.25;94.04;52388.47;2080704;28;25827;-71
2023/03/27 01:41:46;;;;;;;3.65;0.10;;;;;;;-146.25;93.50;52469.56;2074044;28;30542;-72
2023/03/27 01:43:05;;;;;;;4.70;0.35;;;;;;;-146.25;93.20;52388.47;2076754;28;20899;-72
2023/03/27 01:44:16;;;;;;;2.63;0.32;;;;;;;-146.25;93.56;52435.09;2077105;28;20073;-72
2023/03/27 01:45:38;;;;;;;2.42;0.15;;;;;;;-146.25;93.41;52431.06;2073267;28;29356;-72
2023/03/27 01:46:52;;;;;;;2.22;0.20;;;;;;;-146.25;92.90;52422.94;2083714;28;20046;-72
2023/03/27 01:48:14;;;;;;;3.88;0.15;;;;;;;-146.25;92.98;52445.25;2081066;28;20073;-72
2023/03/27 01:49:31;;;;;;;5.57;0.20;;;;;;;-146.25;93.19;52449.31;2083910;28;20217;-72
2023/03/27 01:50:46;;;;;;;3.47;0.20;;;;;;;-146.25;93.32;52453.34;2081223;28;20172;-72
2023/03/27 01:52:02;;;;;;;1.60;0.10;;;;;;;-146.25;93.16;52445.25;2084361;28;20144;-72
2023/03/27 01:53:30;;;;;;;1.67;0.20;;;;;;;-146.25;93.16;52412.81;2080119;28;23809;-72
2023/03/27 01:54:42;;;;;;;4.25;0.20;;;;;;;-146.25;93.69;52416.84;2084807;28;20910;-72
2023/03/27 01:55:57;;;;;;;3.08;0.30;;;;;;;-146.25;93.78;52400.63;2080476;28;27155;-72
2023/03/27 01:57:21;;;;;;;5.15;0.20;;;;;;;-146.25;94.28;52408.75;2083397;28;20953;-72
2023/03/27 01:58:38;;;;;;;4.57;0.45;;;;;;;-146.25;94.08;52402.66;2072970;28;20124;-72
2023/03/27 01:59:44;;;;;;;8.50;0.50;;;;;;;-146.25;94.14;52420.91;2070055;28;20038;-72
2023/03/27 02:00:53;;;;;;;6.05;0.38;;;;;;;-146.25;94.82;52404.69;2077531;28;20049;-72
2023/03/27 02:02:06;;;;;;;1.58;0.10;;;;;;;-146.25;94.53;52420.91;2071577;28;20093;-71
2023/03/27 02:03:18;;;;;;;4.82;0.38;;;;;;;-146.25;94.86;52453.34;2074919;28;25879;-72
2023/03/27 02:04:35;;;;;;;1.65;0.20;;;;;;;-146.25;95.43;52424.97;2083304;28;20033;-71
2023/03/27 02:05:48;;;;;;;2.97;0.30;;;;;;;-146.25;95.82;52404.69;2078658;28;20035;-72
2023/03/27 02:06:57;;;;;;;3.85;0.30;;;;;;;-146.25;95.53;52388.47;2073409;28;20039;-72
2023/03/27 02:08:10;;;;;;;2.03;0.20;;;;;;;-146.25;95.21;52451.31;2073984;28;26880;-72
2023/03/27 02:09:34;;;;;;;2.95;0.20;;;;;;;-146.25;95.30;52435.09;2075167;28;20054;-72
2023/03/27 02:10:42;;;;;;;6.38;0.32;;;;;;;-146.25;96.05;52422.94;2080097;28;21365;-72
2023/03/27 02:12:15;;;;;;;2.28;0.20;;;;;;;-146.25;95.52;52416.84;2089919;28;20048;-72
2023/03/27 02:13:29;;;;;;;5.13;0.40;;;;;;;-146.25;96.17;52396.59;2084991;28;20182;-71
2023/03/27 02:14:41;;;;;;;2.08;0.13;;;;;;;-146.25;96.41;52447.28;2080389;28;20336;-72
2023/03/27 02:15:46;;;;;;;10.07;0.40;;;;;;;-146.25;96.53;52420.91;2073426;28;20039;-72
2023/03/27 02:16:56;;;;;;;4.55;0.35;;;;;;;-146.25;96.23;52429.03;2072613;28;20142;-71
2023/03/27 02:18:09;;;;;;;2.25;0.20;;;;;;;-146.25;96.47;52410.78;2081530;28;22988;-72
2023/03/27 02:19:19;;;;;;;6.32;0.43;;;;;;;-146.25;96.78;52422.94;2089761;28;20048;-72
2023/03/27 02:20:22;;;;;;;5.70;0.30;;;;;;;-146.25;96.94;52402.66;2089307;28;20029;-71
2023/03/27 02:21:25;;;;;;;2.95;0.30;;;;;;;-146.25;96.84;52416.84;2080498;28;20049;-72
2023/03/27 02:22:27;;;;;;;4.25;0.30;;;;;;;-146.25;96.72;52424.97;2080804;28;20033;-72
2023/03/27 02:23:39;;;;;;;2.72;0.50;;;;;;;-146.25;97.43;52441.19;2089106;28;20049;-71
2023/03/27 02:24:42;;;;;;;4.53;0.30;;;;;;;-146.25;97.50;52447.28;2088642;28;20083;-71
2023/03/27 02:25:47;;;;;;;3.88;0.30;;;;;;;-146.25;97.07;52424.97;2080662;28;20038;-71
2023/03/27 02:27:00;;;;;;;5.57;0.40;;;;;;;-146.25;97.59;52437.13;2072470;28;20042;-71
2023/03/27 02:28:24;;;;;;;3.85;0.30;;;;;;;-146.25;97.77;52443.22;2082114;28;20109;-71
2023/03/27 02:30:01;;;;;;;8.55;0.30;;;;;;;-146.25;97.77;52441.19;2090691;28;20037;-71
2023/03/27 02:32:03;;;;;;;5.18;0.20;;;;;;;-146.25;97.45;52433.06;2061057;28;20094;-71
2023/03/27 02:33:22;;;;;;;2.55;0.20;;;;;;;-146.25;97.73;52449.31;2087897;28;25465;-71
2023/03/27 02:35:22;;;;;;;5.45;0.20;;;;;;;-146.25;97.55;52455.38;2080016;28;20068;-71
2023/03/27 02:36:42;;;;;;;3.55;0.20;;;;;;;-146.25;97.85;52396.59;2080337;28;20046;-71
2023/03/27 02:38:07;;;;;;;;;;;;;;;-146.25;98.06;52418.88;2080602;28;20149;-71
2023/03/27 02:39:25;;;;;;;8.63;0.30;;;;;;;-146.25;97.85;52416.84;2078142;28;19928;-71
2023/03/27 02:40:57;;;;;;;5.50;0.38;;;;;;;-146.25;97.56;52441.19;2073267;28;24755;-72
2023/03/27 02:42:44;;;;;;;2.75;0.30;;;;;;;-146.25;97.86;52455.38;2087730;28;20045;-71
2023/03/27 02:44:07;;;;;;;4.68;0.20;;;;;;;-146.25;97.59;52408.75;2071701;28;20045;-71
2023/03/27 02:45:55;;;;;;;4.40;0.30;;;;;;;-146.25;97.76;52422.94;2075805;28;20127;-71
2023/03/27 02:47:23;;;;;;;2.85;0.35;;;;;;;-146.25;97.76;52408.75;2061070;28;20078;-71
2023/03/27 02:48:39;;;;;;;6.75;0.43;;;;;;;-146.25;97.76;52396.59;2079457;28;20049;-71
2023/03/27 02:49:51;;;;;;;3.63;0.30;;;;;;;-146.25;98.11;52412.81;2079931;28;27043;-71
2023/03/27 02:51:01;;;;;;;4.43;0.40;;;;;;;-146.25;98.27;52441.19;2073991;28;20145;-70
2023/03/27 02:52:12;;;;;;;5.63;0.32;;;;;;;-146.25;97.99;52392.53;2072915;28;29844;-71
2023/03/27 02:53:20;;;;;;;4.07;0.32;;;;;;;-146.25;98.94;52439.16;2082709;28;20199;-71
2023/03/27 02:54:31;;;;;;;3.10;0.20;;;;;;;-146.25;98.91;52392.53;2081071;28;20041;-71
2023/03/27 02:55:47;;;;;;;4.88;0.30;;;;;;;-146.25;98.83;52459.44;2074154;28;20046;-71
2023/03/27 02:56:56;;;;;;;3.40;0.17;;;;;;;-146.25;99.39;52477.69;2082528;28;20041;-70
2023/03/27 02:58:13;;;;;;;4.00;0.30;;;;;;;-146.25;99.26;52445.25;2088459;28;20029;-71
2023/03/27 02:59:50;;;;;;;4.75;0.30;;;;;;;-146.25;100.00;52406.72;2088206;28;20052;-73
2023/03/27 03:00:53;;;;;;;6.05;0.30;;;;;;;-146.25;99.43;52408.75;2081582;28;20041;-72
2023/03/27 03:02:12;;;;;;;3.78;0.40;;;;;;;-146.25;100.00;52392.53;2082876;28;20038;-71
2023/03/27 03:03:33;;;;;;;4.40;0.30;;;;;;;-146.25;99.97;52392.53;2072938;28;20090;-71
2023/03/27 03:04:55;;;;;;;3.67;0.30;;;;;;;-146.25;100.00;52396.59;2071008;28;20043;-71
2023/03/27 03:06:06;;;;;;;4.63;0.40;;;;;;;-146.25;100.00;52416.84;2091095;28;20034;-71
2023/03/27 03:07:10;;;;;;;9.00;0.50;;;;;;;-146.25;100.00;52429.03;2094051;28;27352;-71
2023/03/27 03:08:13;;;;;;;2.47;0.20;;;;;;;-146.25;100.00;52418.88;2080019;28;20056;-71
2023/03/27 03:09:17;;;;;;;4.80;0.32;;;;;;;-146.25;100.00;52420.91;2088800;28;20038;-71
2023/03/27 03:10:20;;;;;;;6.60;0.30;;;;;;;-146.25;100.00;52420.91;2087605;28;20175;-71
2023/03/27 03:11:22;;;;;;;2.80;0.30;;;;;;;-146.25;100.00;52416.84;2072970;28;20074;-71
2023/03/27 03:12:26;;;;;;;4.78;0.30;;;;;;;-146.25;100.00;52408.75;2071933;28;21367;-71
2023/03/27 03:13:29;;;;;;;2.17;0.20;;;;;;;-146.25;100.00;52424.97;2072481;28;20066;-70
2023/03/27 03:14:36;;;;;;;10.88;0.40;;;;;;;-146.25;100.00;52422.94;2079861;28;20049;-71
2023/03/27 03:15:38;;;;;;;4.63;0.32;;;;;;;-146.25;100.00;52410.78;2080402;28;20049;-70
2023/03/27 03:16:42;;;;;;;7.80;0.32;;;;;;;-146.25;100.00;52427.00;2072926;28;20131;-70
2023/03/27 03:17:46;;;;;;;6.70;0.32;;;;;;;-146.25;100.00;52435.09;2080645;28;26278;-71
2023/03/27 03:18:49;;;;;;;3.80;0.40;;;;;;;-146.25;100.00;52388.47;2080244;28;23935;-70
2023/03/27 03:19:52;;;;;;;6.63;0.40;;;;;;;-146.25;100.00;52445.25;2072428;28;20035;-70
2023/03/27 03:20:54;;;;;;;6.05;0.30;;;;;;;-146.25;100.00;52402.66;2080200;28;20994;-71
2023/03/27 03:21:56;;;;;;;4.88;0.30;;;;;;;-146.25;100.00;52422.94;2079894;28;21102;-70
2023/03/27 03:22:58;;;;;;;4.90;0.30;;;;;;;-146.25;100.00;52412.81;2071980;28;20042;-70
2023/03/27 03:24:02;;;;;;;4.70;0.38;;;;;;;-146.25;100.00;52408.75;2080114;28;20045;-70
2023/03/27 03:25:06;;;;;;;8.43;0.50;;;;;;;-146.25;100.00;52433.06;2087942;28;20123;-70
2023/03/27 03:26:08;;;;;;;5.93;0.40;;;;;;;-146.25;100.00;52386.44;2072124;28;20138;-71
2023/03/27 03:27:19;;;;;;;4.80;0.43;;;;;;;-146.25;100.00;52396.59;2066220;28;20129;-70
2023/03/27 03:28:29;;;;;;;2.95;0.30;;;;;;;-146.25;100.00;52435.09;2074579;28;20206;-71
2023/03/27 03:29:34;;;;;;;8.00;0.40;;;;;;;-146.25;100.00;52441.19;2071479;28;20226;-70
2023/03/27 03:30:57;;;;;;;4.43;0.32;;;;;;;-146.25;100.00;52400.63;2074859;28;20899;-70
2023/03/27 03:32:00;;;;;;;3.10;0.38;;;;;;;-146.25;100.00;52418.88;2072277;28;20042;-70
2023/03/27 03:33:05;;;;;;;3.10;0.30;;;;;;;-146.25;100.00;52424.97;2080189;28;20038;-70
2023/03/27 03:34:08;;;;;;;5.57;0.40;;;;;;;-146.25;100.00;52412.81;2089169;28;20143;-70
2023/03/27 03:35:12;;;;;;;4.88;0.40;;;;;;;-146.25;100.00;52433.06;2079971;28;20030;-70
2023/03/27 03:36:14;;;;;;;5.68;0.35;;;;;;;-146.25;100.00;52429.03;2071858;28;20113;-70
2023/03/27 03:37:17;;;;;;;3.72;0.35;;;;;;;-146.25;100.00;52433.06;2071883;28;20171;-70
2023/03/27 03:38:24;;;;;;;5.80;0.40;;;;;;;-146.25;100.00;52435.09;2071623;28;27383;-70
2023/03/27 03:39:27;;;;;;;6.00;0.70;;;;;;;-146.25;100.00;52433.06;2079947;28;20916;-70
2023/03/27 03:40:29;;;;;;;3.90;0.40;;;;;;;-146.25;100.00;52424.97;2071215;28;20038;-70
2023/03/27 03:41:31;;;;;;;4.15;0.25;;;;;;;-146.25;100.00;52408.75;2080012;28;20042;-70
2023/03/27 03:42:35;;;;;;;5.30;0.38;;;;;;;-146.25;100.00;52427.00;2096833;28;20048;-70
2023/03/27 03:43:37;;;;;;;5.78;0.38;;;;;;;-146.25;100.00;52402.66;2087848;28;20026;-70
2023/03/27 03:44:41;;;;;;;2.58;0.30;;;;;;;-146.25;100.00;52424.97;2072085;28;20894;-70
2023/03/27 03:45:51;;;;;;;5.72;0.40;;;;;;;-146.25;100.00;52431.06;2079532;28;20046;-70
2023/03/27 03:46:53;;;;;;;4.55;0.22;;;;;;;-146.25;100.00;52416.84;2072181;28;20966;-70
2023/03/27 03:47:55;;;;;;;5.60;0.50;;;;;;;-146.25;100.00;52418.88;2071657;28;20824;-70
2023/03/27 03:48:58;;;;;;;4.03;0.50;;;;;;;-146.25;100.00;52394.56;2071905;28;20963;-70
2023/03/27 03:50:00;;;;;;;5.45;0.30;;;;;;;-146.25;100.00;52435.09;2079203;28;21009;-70
2023/03/27 03:51:04;;;;;;;2.65;0.30;;;;;;;-146.25;100.00;52374.28;2072230;28;20035;-70
2023/03/27 03:52:07;;;;;;;7.75;0.45;;;;;;;-146.25;100.00;52427.00;2071238;28;20053;-70
2023/03/27 03:53:08;;;;;;;4.55;0.55;;;;;;;-146.25;100.00;52435.09;2072121;28;20140;-70
2023/03/27 03:54:10;;;;;;;7.20;0.68;;;;;;;-146.25;100.00;52447.28;2070828;28;28300;-70
2023/03/27 03:55:16;;;;;;;3.65;0.22;;;;;;;-146.25;100.00;52451.31;2088973;28;20084;-69
2023/03/27 03:56:18;;;;;;;8.65;0.40;;;;;;;-146.25;100.00;52416.84;2096045;28;20131;-70
2023/03/27 03:57:23;;;;;;;6.45;0.43;;;;;;;-146.25;100.00;52445.25;2080045;28;20100;-67
2023/03/27 03:58:37;;;;;;;4.88;0.32;;;;;;;-146.25;100.00;52424.97;2089855;28;20045;-70
2023/03/27 03:59:39;;;;;;;4.93;0.52;;;;;;;-146.25;100.00;52481.75;2096394;28;20362;-70
2023/03/27 04:01:19;;;;;;;4.13;0.40;;;;;;;-146.25;100.00;52404.69;2088069;28;20049;-70
2023/03/27 04:02:28;;;;;;;6.68;0.50;;;;;;;-146.25;100.00;52408.75;2071213;28;20046;-70
2023/03/27 04:03:43;;;;;;;7.50;0.35;;;;;;;-146.25;100.00;52422.94;2069074;28;20177;-70
2023/03/27 04:04:45;;;;;;;6.47;0.30;;;;;;;-146.25;100.00;52431.06;2071287;28;20038;-70
2023/03/27 04:05:49;;;;;;;8.40;0.90;;;;;;;-146.25;100.00;52382.38;2072214;28;20958;-70
2023/03/27 04:06:56;;;;;;;3.53;0.40;;;;;;;-146.25;100.00;52433.06;2071578;28;20050;-70
2023/03/27 04:08:07;;;;;;;6.47;0.35;;;;;;;-146.25;100.00;52414.84;2073332;28;20173;-69
2023/03/27 04:09:42;;;;;;;4.30;0.57;;;;;;;-146.25;100.00;52469.56;2076810;28;20042;-70
2023/03/27 04:10:58;;;;;;;7.45;0.60;;;;;;;-146.25;100.00;52429.03;2073353;28;20093;-70
2023/03/27 04:12:35;;;;;;;6.60;0.40;;;;;;;-146.25;100.00;52439.16;2059293;28;20156;-69
2023/03/27 04:13:41;;;;;;;6.93;0.60;;;;;;;-146.25;100.00;52414.84;2054797;28;20043;-70
2023/03/27 04:14:54;;;;;;;10.45;0.40;;;;;;;-146.25;100.00;52479.72;2056930;28;20042;-69
2023/03/27 04:16:15;;;;;;;10.15;0.60;;;;;;;-146.25;100.00;52459.44;2082258;28;20062;-70
2023/03/27 04:17:25;;;;;;;10.77;1.00;;;;;;;-146.25;100.00;52487.81;2087918;28;20111;-70
2023/03/27 04:18:34;;;;;;;5.78;0.90;;;;;;;-146.25;100.00;52429.03;2079901;28;20208;-70
2023/03/27 04:19:40;;;;;;;7.50;0.70;;;;;;;-146.25;100.00;52416.84;2081122;28;20080;-70
2023/03/27 04:20:42;;;;;;;8.93;0.80;;;;;;;-146.25;100.00;52408.75;2079840;28;20123;-69
2023/03/27 04:21:46;;;;;;;5.03;0.47;;;;;;;-146.25;100.00;52431.06;2072039;28;20050;-70
2023/03/27 04:22:49;;;;;;;9.70;0.65;;;;;;;-146.25;100.00;52424.97;2071657;28;20049;-69
2023/03/27 04:24:01;;;;;;;5.25;0.50;;;;;;;-146.25;100.00;52402.66;2080140;28;20263;-69
2023/03/27 04:25:16;;;;;;;7.32;0.82;;;;;;;-146.25;100.00;52406.72;2085093;28;20123;-69
2023/03/27 04:26:25;;;;;;;5.00;0.75;;;;;;;-146.25;100.00;52422.94;2080000;28;20914;-69
2023/03/27 04:27:45;;;;;;;10.85;0.65;;;;;;;-146.25;100.00;52433.06;2082902;28;20152;-70
2023/03/27 04:29:12;;;;;;;9.70;0.60;;;;;;;-146.25;100.00;52394.56;2079960;28;20872;-69
2023/03/27 04:30:32;;;;;;;6.22;0.63;;;;;;;-146.25;100.00;52386.44;2088291;28;20946;-69
2023/03/27 04:31:52;;;;;;;5.47;0.70;;;;;;;-146.25;100.00;52422.94;2089066;28;20096;-69
2023/03/27 04:33:23;;;;;;;7.03;1.00;;;;;;;-146.25;100.00;52441.19;2062759;28;20070;-70
2023/03/27 04:34:55;;;;;;;10.15;0.90;;;;;;;-146.25;100.00;52402.66;2064510;28;20992;-69
2023/03/27 04:36:29;;;;;;;10.32;1.05;;;;;;;-146.25;100.00;52424.97;2074719;28;20045;-69
2023/03/27 04:37:40;;;;;;;8.07;0.93;;;;;;;-146.25;100.00;52412.81;2086120;28;20135;-69
2023/03/27 04:39:15;;;;;;;9.82;1.00;;;;;;;-146.25;100.00;52402.66;2088131;28;20057;-71
2023/03/27 04:40:17;;;;;;;15.05;1.00;;;;;;;-146.25;100.00;52433.06;2070857;28;27171;-71
2023/03/27 04:41:20;;;;;;;9.75;1.25;;;;;;;-146.25;100.00;52435.09;2080629;28;21109;-71
2023/03/27 04:42:22;;;;;;;7.45;1.00;;;;;;;-146.25;100.00;52400.63;2095256;28;20159;-71
2023/03/27 04:43:24;;;;;;;9.68;1.20;;;;;;;-146.25;100.00;52453.34;2079824;28;20042;-71
2023/03/27 04:44:27;;;;;;;8.18;0.70;;;;;;;-146.25;100.00;52441.19;2087969;28;20053;-71
2023/03/27 04:45:28;;;;;;;9.90;0.98;;;;;;;-146.25;100.00;52427.00;2087595;28;21270;-69
2023/03/27 04:46:30;;;;;;;7.63;1.00;;;;;;;-146.25;100.00;52461.47;2087713;28;20105;-70
2023/03/27 04:47:42;;;;;;;11.95;0.90;;;;;;;-146.25;100.00;52416.84;2095241;28;20830;-71
2023/03/27 04:48:44;;;;;;;10.57;0.90;;;;;;;-146.25;100.00;52388.47;2087845;28;20934;-70
2023/03/27 04:50:09;;;;;;;9.43;1.00;;;;;;;-146.25;100.00;52376.31;2087542;28;20049;-71
2023/03/27 04:51:10;;;;;;;6.97;0.65;;;;;;;-146.25;100.00;52433.06;2088355;28;20076;-70
2023/03/27 04:52:13;;;;;;;8.38;0.63;;;;;;;-146.25;100.00;52412.81;2080760;28;20146;-70
2023/03/27 04:53:22;;;;;;;13.35;0.60;;;;;;;-146.25;100.00;52422.94;2064766;28;20864;-70
2023/03/27 04:54:26;;;;;;;11.48;0.70;;;;;;;-146.25;100.00;52424.97;2074830;28;20042;-70
2023/03/27 04:55:29;;;;;;;12.35;0.90;;;;;;;-146.25;100.00;52465.53;2090374;28;23981;-70
2023/03/27 04:56:33;;;;;;;5.30;0.80;;;;;;;-146.25;100.00;52408.75;2072537;28;21132;-70
2023/03/27 04:57:36;;;;;;;8.55;1.05;;;;;;;-146.25;100.00;52414.84;2066150;28;20094;-70
2023/03/27 04:58:39;;;;;;;8.80;1.02;;;;;;;-146.25;100.00;52394.56;2080907;28;20045;-71
2023/03/27 04:59:45;;;;;;;9.93;1.40;;;;;;;-146.25;100.00;52441.19;2073054;28;20923;-70
2023/03/27 05:01:06;;;;;;;11.32;1.38;;;;;;;-146.25;100.00;52451.31;2078657;28;20050;-70
2023/03/27 05:02:27;;;;;;;11.18;1.23;;;;;;;-146.25;100.00;52424.97;2089473;28;20842;-70
2023/03/27 05:03:36;;;;;;;9.10;0.85;;;;;;;-146.25;100.00;52422.94;2089119;28;20931;-71
2023/03/27 05:04:44;;;;;;;7.93;1.85;;;;;;;-146.25;100.00;52416.84;2080789;28;20152;-70
2023/03/27 05:05:52;;;;;;;9.65;1.13;;;;;;;-146.25;100.00;52414.84;2073998;28;20970;-70
2023/03/27 05:06:55;;;;;;;6.80;1.00;;;;;;;-146.25;100.00;52445.25;2080516;28;21040;-71
2023/03/27 05:07:57;;;;;;;7.93;0.80;;;;;;;-146.25;100.00;52429.03;2081030;28;20046;-70
2023/03/27 05:09:02;;;;;;;9.20;1.05;;;;;;;-146.25;100.00;52449.31;2072947;28;20050;-71
2023/03/27 05:10:07;;;;;;;6.63;0.98;;;;;;;-146.25;100.00;52431.06;2073607;28;20172;-71
2023/03/27 05:11:10;;;;;;;12.75;1.42;;;;;;;-146.25;100.00;52455.38;2072630;28;20047;-69
2023/03/27 05:12:19;;;;;;;10.48;1.25;;;;;;;-146.25;100.00;52455.38;2082212;28;20042;-67
2023/03/27 05:13:25;;;;;;;10.00;1.30;;;;;;;-146.25;100.00;52427.00;2079643;28;20911;-69
2023/03/27 05:14:27;;;;;;;9.82;1.58;;;;;;;-146.25;100.00;52424.97;2089229;28;20416;-69
2023/03/27 05:15:32;;;;;;;8.45;1.13;;;;;;;-146.25;100.00;52443.22;2088583;28;20041;-71
2023/03/27 05:16:36;;;;;;;9.55;1.17;;;;;;;-146.25;100.00;52410.78;2073816;28;20103;-70
2023/03/27 05:17:42;;;;;;;10.18;1.17;;;;;;;-146.25;100.00;52443.22;2072571;28;20034;-70
2023/03/27 05:18:44;;;;;;;10.70;1.58;;;;;;;-146.25;100.00;52433.06;2065121;28;20090;-69
2023/03/27 05:19:45;;;;;;;8.38;1.05;;;;;;;-146.25;100.00;52443.22;2081003;28;20041;-69
2023/03/27 05:20:53;;;;;;;6.25;0.85;;;;;;;-146.25;100.00;52473.63;2089653;28;20089;-69
2023/03/27 05:21:55;;;;;;;13.35;1.05;;;;;;;-146.25;100.00;52418.88;2073007;28;20057;-70
2023/03/27 05:22:57;;;;;;;5.70;0.80;;;;;;;-146.25;100.00;52412.81;2080971;28;20132;-70
2023/03/27 05:24:00;;;;;;;9.55;1.25;;;;;;;-146.25;100.00;52418.88;2080413;28;20157;-70
2023/03/27 05:25:03;;;;;;;10.18;1.23;;;;;;;-146.25;100.00;52457.41;2072349;28;21050;-71